sensor_id;sensor_type;location;lat;lon;timestamp;pressure;altitude;pressure_sealevel;temperature;humidity
79370;BME280;68835;53.096;17.932;2023-04-15T00:00:22;100042.47;;;8.79;69.60
79370;BME280;68835;53.096;17.932;2023-04-15T00:03:10;100041.73;;;8.75;69.52
79370;BME280;68835;53.096;17.932;2023-04-15T00:05:37;100043.64;;;8.73;69.71
79370;BME280;68835;53.096;17.932;2023-04-15T00:08:04;100042.41;;;8.70;69.39
79370;BME280;68835;53.096;17.932;2023-04-15T00:10:32;100044.81;;;8.67;69.51
79370;BME280;68835;53.096;17.932;2023-04-15T00:13:00;100042.70;;;8.63;69.84
79370;BME280;68835;53.096;17.932;2023-04-15T00:15:28;100041.64;;;8.61;69.79
79370;BME280;68835;53.096;17.932;2023-04-15T00:17:55;100040.43;;;8.62;69.86
79370;BME280;68835;53.096;17.932;2023-04-15T00:20:22;100037.98;;;8.62;69.91
79370;BME280;68835;53.096;17.932;2023-04-15T00:22:50;100035.90;;;8.61;69.91
79370;BME280;68835;53.096;17.932;2023-04-15T00:25:17;100033.63;;;8.61;70.08
79370;BME280;68835;53.096;17.932;2023-04-15T00:27:44;100033.11;;;8.61;69.69
79370;BME280;68835;53.096;17.932;2023-04-15T00:30:13;100029.06;;;8.57;70.00
79370;BME280;68835;53.096;17.932;2023-04-15T00:32:41;100029.40;;;8.55;70.58
79370;BME280;68835;53.096;17.932;2023-04-15T00:35:08;100026.59;;;8.52;70.51
79370;BME280;68835;53.096;17.932;2023-04-15T00:37:35;100026.06;;;8.49;70.49
79370;BME280;68835;53.096;17.932;2023-04-15T00:40:03;100030.59;;;8.50;70.47
79370;BME280;68835;53.096;17.932;2023-04-15T00:42:33;100028.34;;;8.52;70.32
79370;BME280;68835;53.096;17.932;2023-04-15T00:45:02;100031.48;;;8.52;70.20
79370;BME280;68835;53.096;17.932;2023-04-15T00:47:30;100030.25;;;8.52;70.40
79370;BME280;68835;53.096;17.932;2023-04-15T00:49:59;100031.80;;;8.50;70.34
79370;BME280;68835;53.096;17.932;2023-04-15T00:52:27;100030.91;;;8.48;70.63
79370;BME280;68835;53.096;17.932;2023-04-15T00:54:54;100035.09;;;8.46;71.06
79370;BME280;68835;53.096;17.932;2023-04-15T00:57:21;100035.09;;;8.44;71.10
79370;BME280;68835;53.096;17.932;2023-04-15T00:59:50;100032.45;;;8.42;71.45
79370;BME280;68835;53.096;17.932;2023-04-15T01:02:18;100030.68;;;8.38;71.25
79370;BME280;68835;53.096;17.932;2023-04-15T01:04:46;100029.46;;;8.38;71.26
79370;BME280;68835;53.096;17.932;2023-04-15T01:07:13;100029.98;;;8.39;71.07
79370;BME280;68835;53.096;17.932;2023-04-15T01:09:41;100036.11;;;8.42;71.47
79370;BME280;68835;53.096;17.932;2023-04-15T01:12:11;100029.14;;;8.41;71.99
79370;BME280;68835;53.096;17.932;2023-04-15T01:14:39;100030.89;;;8.41;71.44
79370;BME280;68835;53.096;17.932;2023-04-15T01:17:06;100032.09;;;8.40;71.60
79370;BME280;68835;53.096;17.932;2023-04-15T01:19:35;100031.72;;;8.38;72.15
79370;BME280;68835;53.096;17.932;2023-04-15T01:22:03;100031.73;;;8.38;72.36
79370;BME280;68835;53.096;17.932;2023-04-15T01:24:32;100035.04;;;8.38;72.07
79370;BME280;68835;53.096;17.932;2023-04-15T01:27:00;100035.04;;;8.40;71.86
79370;BME280;68835;53.096;17.932;2023-04-15T01:29:29;100034.19;;;8.41;71.72
79370;BME280;68835;53.096;17.932;2023-04-15T01:31:57;100028.61;;;8.43;71.61
79370;BME280;68835;53.096;17.932;2023-04-15T01:34:26;100026.52;;;8.42;71.88
79370;BME280;68835;53.096;17.932;2023-04-15T01:36:54;100033.48;;;8.40;71.96
79370;BME280;68835;53.096;17.932;2023-04-15T01:39:22;100028.41;;;8.39;72.34
79370;BME280;68835;53.096;17.932;2023-04-15T01:41:49;100028.94;;;8.38;71.98
79370;BME280;68835;53.096;17.932;2023-04-15T01:44:16;100025.63;;;8.38;72.55
79370;BME280;68835;53.096;17.932;2023-04-15T01:46:43;100022.14;;;8.39;72.36
79370;BME280;68835;53.096;17.932;2023-04-15T01:49:11;100021.82;;;8.41;72.41
79370;BME280;68835;53.096;17.932;2023-04-15T01:51:38;100024.11;;;8.45;72.54
79370;BME280;68835;53.096;17.932;2023-04-15T01:54:06;100024.64;;;8.48;72.30
79370;BME280;68835;53.096;17.932;2023-04-15T01:56:33;100023.61;;;8.48;72.40
79370;BME280;68835;53.096;17.932;2023-04-15T01:59:01;100018.02;;;8.47;72.42
79370;BME280;68835;53.096;17.932;2023-04-15T02:01:29;100015.39;;;8.46;71.87
79370;BME280;68835;53.096;17.932;2023-04-15T02:03:59;100022.53;;;8.45;72.14
79370;BME280;68835;53.096;17.932;2023-04-15T02:06:26;100018.50;;;8.42;72.24
79370;BME280;68835;53.096;17.932;2023-04-15T02:08:55;100026.67;;;8.38;72.58
79370;BME280;68835;53.096;17.932;2023-04-15T02:11:23;100024.40;;;8.38;72.35
79370;BME280;68835;53.096;17.932;2023-04-15T02:13:53;100027.37;;;8.39;72.56
79370;BME280;68835;53.096;17.932;2023-04-15T02:16:20;100026.87;;;8.41;72.34
79370;BME280;68835;53.096;17.932;2023-04-15T02:18:47;100031.58;;;8.42;72.64
79370;BME280;68835;53.096;17.932;2023-04-15T02:21:15;100027.05;;;8.43;72.22
79370;BME280;68835;53.096;17.932;2023-04-15T02:23:42;100026.17;;;8.42;72.65
79370;BME280;68835;53.096;17.932;2023-04-15T02:26:19;100024.61;;;8.41;72.57
79370;BME280;68835;53.096;17.932;2023-04-15T02:28:48;100025.63;;;8.40;72.72
79370;BME280;68835;53.096;17.932;2023-04-15T02:31:17;100025.48;;;8.41;72.56
79370;BME280;68835;53.096;17.932;2023-04-15T02:33:44;100023.59;;;8.47;72.76
79370;BME280;68835;53.096;17.932;2023-04-15T02:36:12;100024.16;;;8.54;72.51
79370;BME280;68835;53.096;17.932;2023-04-15T02:38:39;100027.01;;;8.62;72.23
79370;BME280;68835;53.096;17.932;2023-04-15T02:41:09;100031.41;;;8.68;72.61
79370;BME280;68835;53.096;17.932;2023-04-15T02:43:37;100030.20;;;8.72;72.34
79370;BME280;68835;53.096;17.932;2023-04-15T02:46:06;100034.77;;;8.77;72.23
79370;BME280;68835;53.096;17.932;2023-04-15T02:48:33;100031.13;;;8.80;72.37
79370;BME280;68835;53.096;17.932;2023-04-15T02:51:14;100031.14;;;8.82;72.15
79370;BME280;68835;53.096;17.932;2023-04-15T02:53:42;100026.62;;;8.86;72.04
79370;BME280;68835;53.096;17.932;2023-04-15T02:56:09;100028.05;;;8.92;72.04
79370;BME280;68835;53.096;17.932;2023-04-15T02:58:38;100030.70;;;8.98;71.67
79370;BME280;68835;53.096;17.932;2023-04-15T03:01:05;100029.67;;;9.03;71.69
79370;BME280;68835;53.096;17.932;2023-04-15T03:03:35;100027.60;;;9.05;71.82
79370;BME280;68835;53.096;17.932;2023-04-15T03:06:02;100026.55;;;9.08;71.78
79370;BME280;68835;53.096;17.932;2023-04-15T03:08:30;100027.60;;;9.09;71.95
79370;BME280;68835;53.096;17.932;2023-04-15T03:10:58;100025.69;;;9.10;71.51
79370;BME280;68835;53.096;17.932;2023-04-15T03:13:27;100022.55;;;9.09;72.16
79370;BME280;68835;53.096;17.932;2023-04-15T03:15:54;100028.65;;;9.08;72.02
79370;BME280;68835;53.096;17.932;2023-04-15T03:18:22;100029.54;;;9.09;71.94
79370;BME280;68835;53.096;17.932;2023-04-15T03:20:50;100031.11;;;9.13;71.77
79370;BME280;68835;53.096;17.932;2023-04-15T03:23:17;100030.97;;;9.17;71.63
79370;BME280;68835;53.096;17.932;2023-04-15T03:25:45;100030.80;;;9.19;71.58
79370;BME280;68835;53.096;17.932;2023-04-15T03:28:12;100030.30;;;9.22;71.43
79370;BME280;68835;53.096;17.932;2023-04-15T03:30:39;100034.48;;;9.25;71.36
79370;BME280;68835;53.096;17.932;2023-04-15T03:33:07;100035.02;;;9.26;71.65
79370;BME280;68835;53.096;17.932;2023-04-15T03:35:34;100032.74;;;9.27;71.25
79370;BME280;68835;53.096;17.932;2023-04-15T03:38:02;100035.89;;;9.27;71.79
79370;BME280;68835;53.096;17.932;2023-04-15T03:40:29;100030.66;;;9.26;71.42
79370;BME280;68835;53.096;17.932;2023-04-15T03:42:57;100033.29;;;9.26;71.43
79370;BME280;68835;53.096;17.932;2023-04-15T03:45:24;100031.88;;;9.27;71.53
79370;BME280;68835;53.096;17.932;2023-04-15T03:47:51;100038.15;;;9.28;71.38
79370;BME280;68835;53.096;17.932;2023-04-15T03:50:19;100034.51;;;9.30;71.46
79370;BME280;68835;53.096;17.932;2023-04-15T03:52:46;100032.59;;;9.32;71.42
79370;BME280;68835;53.096;17.932;2023-04-15T03:55:13;100037.66;;;9.34;71.27
79370;BME280;68835;53.096;17.932;2023-04-15T03:57:41;100036.61;;;9.35;71.24
79370;BME280;68835;53.096;17.932;2023-04-15T04:00:08;100038.36;;;9.34;71.02
79370;BME280;68835;53.096;17.932;2023-04-15T04:02:39;100041.86;;;9.34;71.36
79370;BME280;68835;53.096;17.932;2023-04-15T04:05:07;100041.16;;;9.34;71.29
79370;BME280;68835;53.096;17.932;2023-04-15T04:07:34;100043.77;;;9.31;71.37
79370;BME280;68835;53.096;17.932;2023-04-15T04:10:02;100044.46;;;9.31;71.40
79370;BME280;68835;53.096;17.932;2023-04-15T04:12:29;100045.51;;;9.33;71.35
79370;BME280;68835;53.096;17.932;2023-04-15T04:14:57;100048.48;;;9.36;71.34
79370;BME280;68835;53.096;17.932;2023-04-15T04:17:24;100045.54;;;9.38;71.15
79370;BME280;68835;53.096;17.932;2023-04-15T04:19:51;100046.23;;;9.40;71.35
79370;BME280;68835;53.096;17.932;2023-04-15T04:22:21;100043.62;;;9.41;71.02
79370;BME280;68835;53.096;17.932;2023-04-15T04:24:50;100047.82;;;9.42;71.08
79370;BME280;68835;53.096;17.932;2023-04-15T04:27:17;100044.50;;;9.42;71.60
79370;BME280;68835;53.096;17.932;2023-04-15T04:29:44;100047.30;;;9.41;71.18
79370;BME280;68835;53.096;17.932;2023-04-15T04:32:13;100048.85;;;9.40;71.30
79370;BME280;68835;53.096;17.932;2023-04-15T04:34:40;100052.16;;;9.40;71.40
79370;BME280;68835;53.096;17.932;2023-04-15T04:37:08;100047.64;;;9.42;71.26
79370;BME280;68835;53.096;17.932;2023-04-15T04:39:35;100049.21;;;9.44;70.99
79370;BME280;68835;53.096;17.932;2023-04-15T04:42:02;100051.33;;;9.47;71.06
79370;BME280;68835;53.096;17.932;2023-04-15T04:44:30;100051.15;;;9.48;71.37
79370;BME280;68835;53.096;17.932;2023-04-15T04:46:57;100050.46;;;9.47;71.30
79370;BME280;68835;53.096;17.932;2023-04-15T04:49:24;100049.23;;;9.49;71.01
79370;BME280;68835;53.096;17.932;2023-04-15T04:51:51;100051.51;;;9.50;70.98
79370;BME280;68835;53.096;17.932;2023-04-15T04:54:19;100049.59;;;9.50;71.19
79370;BME280;68835;53.096;17.932;2023-04-15T04:56:47;100047.31;;;9.50;71.11
79370;BME280;68835;53.096;17.932;2023-04-15T04:59:14;100053.44;;;9.50;70.97
79370;BME280;68835;53.096;17.932;2023-04-15T05:01:41;100052.74;;;9.53;70.81
79370;BME280;68835;53.096;17.932;2023-04-15T05:04:08;100052.05;;;9.58;71.07
79370;BME280;68835;53.096;17.932;2023-04-15T05:06:36;100053.11;;;9.62;71.10
79370;BME280;68835;53.096;17.932;2023-04-15T05:09:03;100052.95;;;9.64;70.99
79370;BME280;68835;53.096;17.932;2023-04-15T05:11:30;100055.05;;;9.66;70.84
79370;BME280;68835;53.096;17.932;2023-04-15T05:13:57;100057.33;;;9.66;70.94
79370;BME280;68835;53.096;17.932;2023-04-15T05:16:27;100054.17;;;9.66;71.09
79370;BME280;68835;53.096;17.932;2023-04-15T05:18:55;100052.60;;;9.66;71.10
79370;BME280;68835;53.096;17.932;2023-04-15T05:21:23;100054.70;;;9.66;71.25
79370;BME280;68835;53.096;17.932;2023-04-15T05:23:52;100055.92;;;9.66;71.37
79370;BME280;68835;53.096;17.932;2023-04-15T05:26:19;100058.02;;;9.69;70.97
79370;BME280;68835;53.096;17.932;2023-04-15T05:28:47;100058.21;;;9.71;70.96
79370;BME280;68835;53.096;17.932;2023-04-15T05:31:15;100058.39;;;9.73;70.78
79370;BME280;68835;53.096;17.932;2023-04-15T05:33:43;100062.75;;;9.74;70.99
79370;BME280;68835;53.096;17.932;2023-04-15T05:36:11;100061.17;;;9.75;70.97
79370;BME280;68835;53.096;17.932;2023-04-15T05:38:39;100066.08;;;9.74;71.10
79370;BME280;68835;53.096;17.932;2023-04-15T05:41:07;100064.15;;;9.74;70.91
79370;BME280;68835;53.096;17.932;2023-04-15T05:43:35;100065.90;;;9.73;70.92
79370;BME280;68835;53.096;17.932;2023-04-15T05:46:02;100067.48;;;9.72;71.37
79370;BME280;68835;53.096;17.932;2023-04-15T05:48:29;100066.95;;;9.70;71.03
79370;BME280;68835;53.096;17.932;2023-04-15T05:50:57;100069.04;;;9.71;70.97
79370;BME280;68835;53.096;17.932;2023-04-15T05:53:24;100071.14;;;9.75;70.99
79370;BME280;68835;53.096;17.932;2023-04-15T05:55:51;100071.69;;;9.76;71.19
79370;BME280;68835;53.096;17.932;2023-04-15T05:58:18;100072.55;;;9.77;71.42
79370;BME280;68835;53.096;17.932;2023-04-15T06:00:45;100076.75;;;9.77;71.58
79370;BME280;68835;53.096;17.932;2023-04-15T06:03:13;100079.52;;;9.75;71.70
79370;BME280;68835;53.096;17.932;2023-04-15T06:05:40;100083.20;;;9.73;72.17
79370;BME280;68835;53.096;17.932;2023-04-15T06:08:07;100080.58;;;9.71;72.24
79370;BME280;68835;53.096;17.932;2023-04-15T06:10:35;100082.66;;;9.68;72.43
79370;BME280;68835;53.096;17.932;2023-04-15T06:13:03;100085.09;;;9.67;72.13
79370;BME280;68835;53.096;17.932;2023-04-15T06:15:30;100083.00;;;9.68;72.45
79370;BME280;68835;53.096;17.932;2023-04-15T06:17:57;100088.25;;;9.69;72.71
79370;BME280;68835;53.096;17.932;2023-04-15T06:20:25;100089.29;;;9.67;73.17
79370;BME280;68835;53.096;17.932;2023-04-15T06:22:52;100091.91;;;9.66;73.64
79370;BME280;68835;53.096;17.932;2023-04-15T06:25:19;100093.11;;;9.62;73.82
79370;BME280;68835;53.096;17.932;2023-04-15T06:27:47;100093.27;;;9.59;74.00
79370;BME280;68835;53.096;17.932;2023-04-15T06:30:14;100095.54;;;9.57;74.72
79370;BME280;68835;53.096;17.932;2023-04-15T06:32:42;100094.48;;;9.56;74.53
79370;BME280;68835;53.096;17.932;2023-04-15T06:35:09;100100.60;;;9.56;74.20
79370;BME280;68835;53.096;17.932;2023-04-15T06:37:36;100100.09;;;9.58;74.66
79370;BME280;68835;53.096;17.932;2023-04-15T06:40:04;100099.58;;;9.58;75.26
79370;BME280;68835;53.096;17.932;2023-04-15T06:42:31;100103.58;;;9.55;75.14
79370;BME280;68835;53.096;17.932;2023-04-15T06:44:59;100100.43;;;9.52;75.38
79370;BME280;68835;53.096;17.932;2023-04-15T06:47:26;100105.48;;;9.49;75.93
79370;BME280;68835;53.096;17.932;2023-04-15T06:49:53;100107.55;;;9.45;76.52
79370;BME280;68835;53.096;17.932;2023-04-15T06:52:20;100107.73;;;9.45;76.57
79370;BME280;68835;53.096;17.932;2023-04-15T06:54:47;100111.04;;;9.43;76.63
79370;BME280;68835;53.096;17.932;2023-04-15T06:57:15;100111.21;;;9.42;76.58
79370;BME280;68835;53.096;17.932;2023-04-15T06:59:42;100117.66;;;9.43;76.80
79370;BME280;68835;53.096;17.932;2023-04-15T07:02:11;100115.22;;;9.43;76.75
79370;BME280;68835;53.096;17.932;2023-04-15T07:04:40;100120.29;;;9.44;77.01
79370;BME280;68835;53.096;17.932;2023-04-15T07:07:07;100124.30;;;9.42;77.54
79370;BME280;68835;53.096;17.932;2023-04-15T07:09:35;100127.25;;;9.38;77.85
79370;BME280;68835;53.096;17.932;2023-04-15T07:12:02;100130.05;;;9.38;77.42
79370;BME280;68835;53.096;17.932;2023-04-15T07:14:29;100131.10;;;9.39;77.35
79370;BME280;68835;53.096;17.932;2023-04-15T07:16:57;100127.77;;;9.36;77.88
79370;BME280;68835;53.096;17.932;2023-04-15T07:19:24;100133.69;;;9.34;77.99
79370;BME280;68835;53.096;17.932;2023-04-15T07:21:51;100133.31;;;9.31;78.12
79370;BME280;68835;53.096;17.932;2023-04-15T07:24:18;100134.52;;;9.28;78.39
79370;BME280;68835;53.096;17.932;2023-04-15T07:26:46;100135.05;;;9.27;78.13
79370;BME280;68835;53.096;17.932;2023-04-15T07:29:13;100137.52;;;9.32;78.59
79370;BME280;68835;53.096;17.932;2023-04-15T07:31:41;100136.11;;;9.33;78.57
79370;BME280;68835;53.096;17.932;2023-04-15T07:34:08;100139.27;;;9.33;78.35
79370;BME280;68835;53.096;17.932;2023-04-15T07:36:35;100140.15;;;9.35;78.47
79370;BME280;68835;53.096;17.932;2023-04-15T07:39:02;100139.13;;;9.37;78.76
79370;BME280;68835;53.096;17.932;2023-04-15T07:41:30;100140.33;;;9.36;78.63
79370;BME280;68835;53.096;17.932;2023-04-15T07:43:57;100137.53;;;9.36;78.55
79370;BME280;68835;53.096;17.932;2023-04-15T07:46:25;100144.02;;;9.39;79.02
79370;BME280;68835;53.096;17.932;2023-04-15T07:48:53;100145.09;;;9.42;78.69
79370;BME280;68835;53.096;17.932;2023-04-15T07:51:20;100148.75;;;9.45;78.78
79370;BME280;68835;53.096;17.932;2023-04-15T07:53:48;100149.46;;;9.48;78.70
79370;BME280;68835;53.096;17.932;2023-04-15T07:56:16;100148.96;;;9.51;78.68
79370;BME280;68835;53.096;17.932;2023-04-15T07:58:43;100147.91;;;9.52;78.92
79370;BME280;68835;53.096;17.932;2023-04-15T08:01:11;100150.00;;;9.51;78.90
79370;BME280;68835;53.096;17.932;2023-04-15T08:03:38;100152.63;;;9.51;79.08
79370;BME280;68835;53.096;17.932;2023-04-15T08:06:05;100152.48;;;9.52;79.30
79370;BME280;68835;53.096;17.932;2023-04-15T08:08:33;100150.55;;;9.55;79.15
79370;BME280;68835;53.096;17.932;2023-04-15T08:11:00;100155.11;;;9.59;79.18
79370;BME280;68835;53.096;17.932;2023-04-15T08:13:27;100156.89;;;9.64;79.28
79370;BME280;68835;53.096;17.932;2023-04-15T08:16:16;100158.13;;;9.69;78.88
79370;BME280;68835;53.096;17.932;2023-04-15T08:18:48;100158.67;;;9.71;79.38
79370;BME280;68835;53.096;17.932;2023-04-15T08:21:16;100159.70;;;9.69;79.18
79370;BME280;68835;53.096;17.932;2023-04-15T08:23:47;100162.67;;;9.70;79.14
79370;BME280;68835;53.096;17.932;2023-04-15T08:26:15;100164.60;;;9.69;79.28
79370;BME280;68835;53.096;17.932;2023-04-15T08:28:44;100163.73;;;9.72;79.03
79370;BME280;68835;53.096;17.932;2023-04-15T08:31:16;100165.32;;;9.78;79.13
79370;BME280;68835;53.096;17.932;2023-04-15T08:33:44;100169.01;;;9.81;79.21
79370;BME280;68835;53.096;17.932;2023-04-15T08:36:15;100166.92;;;9.85;79.13
79370;BME280;68835;53.096;17.932;2023-04-15T08:38:43;100170.61;;;9.89;79.09
79370;BME280;68835;53.096;17.932;2023-04-15T08:41:24;100169.93;;;9.93;79.01
79370;BME280;68835;53.096;17.932;2023-04-15T08:43:53;100173.77;;;9.93;79.09
79370;BME280;68835;53.096;17.932;2023-04-15T08:46:20;100173.06;;;9.94;78.99
79370;BME280;68835;53.096;17.932;2023-04-15T08:48:49;100173.44;;;9.96;79.13
79370;BME280;68835;53.096;17.932;2023-04-15T08:51:17;100177.98;;;9.98;79.27
79370;BME280;68835;53.096;17.932;2023-04-15T08:53:44;100178.88;;;10.00;79.27
79370;BME280;68835;53.096;17.932;2023-04-15T08:56:14;100178.16;;;9.99;79.14
79370;BME280;68835;53.096;17.932;2023-04-15T08:58:44;100175.71;;;10.01;79.30
79370;BME280;68835;53.096;17.932;2023-04-15T09:01:12;100176.77;;;10.02;79.41
79370;BME280;68835;53.096;17.932;2023-04-15T09:03:40;100184.82;;;10.04;79.39
79370;BME280;68835;53.096;17.932;2023-04-15T09:06:08;100177.83;;;10.06;79.67
79370;BME280;68835;53.096;17.932;2023-04-15T09:08:35;100184.29;;;10.04;79.38
79370;BME280;68835;53.096;17.932;2023-04-15T09:11:02;100185.52;;;10.07;79.30
79370;BME280;68835;53.096;17.932;2023-04-15T09:13:30;100182.56;;;10.09;79.46
79370;BME280;68835;53.096;17.932;2023-04-15T09:15:57;100181.52;;;10.09;79.48
79370;BME280;68835;53.096;17.932;2023-04-15T09:18:29;100180.13;;;10.11;79.20
79370;BME280;68835;53.096;17.932;2023-04-15T09:21:10;100182.21;;;10.13;79.22
79370;BME280;68835;53.096;17.932;2023-04-15T09:23:54;100184.50;;;10.16;79.36
79370;BME280;68835;53.096;17.932;2023-04-15T09:26:33;100179.45;;;10.19;79.27
79370;BME280;68835;53.096;17.932;2023-04-15T09:29:09;100182.59;;;10.17;79.74
79370;BME280;68835;53.096;17.932;2023-04-15T09:31:40;100180.85;;;10.20;79.33
79370;BME280;68835;53.096;17.932;2023-04-15T09:34:08;100182.63;;;10.26;79.40
79370;BME280;68835;53.096;17.932;2023-04-15T09:36:55;100181.78;;;10.33;79.40
79370;BME280;68835;53.096;17.932;2023-04-15T09:39:23;100182.33;;;10.43;79.25
79370;BME280;68835;53.096;17.932;2023-04-15T09:42:06;100181.97;;;10.48;79.23
79370;BME280;68835;53.096;17.932;2023-04-15T09:44:34;100181.81;;;10.56;79.17
79370;BME280;68835;53.096;17.932;2023-04-15T09:47:01;100185.31;;;10.62;79.05
79370;BME280;68835;53.096;17.932;2023-04-15T09:49:28;100186.38;;;10.68;79.12
79370;BME280;68835;53.096;17.932;2023-04-15T09:52:00;100184.96;;;10.75;79.02
79370;BME280;68835;53.096;17.932;2023-04-15T09:54:35;100184.11;;;10.86;79.31
79370;BME280;68835;53.096;17.932;2023-04-15T09:57:09;100188.29;;;10.91;78.91
79370;BME280;68835;53.096;17.932;2023-04-15T09:59:36;100188.13;;;10.92;78.51
79370;BME280;68835;53.096;17.932;2023-04-15T10:02:04;100192.15;;;10.94;78.61
79370;BME280;68835;53.096;17.932;2023-04-15T10:04:35;100193.02;;;10.94;78.62
79370;BME280;68835;53.096;17.932;2023-04-15T10:07:04;100190.39;;;10.94;78.59
79370;BME280;68835;53.096;17.932;2023-04-15T10:09:35;100192.14;;;10.91;78.34
79370;BME280;68835;53.096;17.932;2023-04-15T10:12:03;100190.40;;;10.95;78.43
79370;BME280;68835;53.096;17.932;2023-04-15T10:14:33;100187.95;;;11.00;78.07
79370;BME280;68835;53.096;17.932;2023-04-15T10:17:01;100190.75;;;11.04;78.14
79370;BME280;68835;53.096;17.932;2023-04-15T10:19:32;100194.07;;;10.99;78.24
79370;BME280;68835;53.096;17.932;2023-04-15T10:22:00;100194.59;;;10.95;78.58
79370;BME280;68835;53.096;17.932;2023-04-15T10:24:30;100194.25;;;10.89;78.46
79370;BME280;68835;53.096;17.932;2023-04-15T10:26:59;100198.27;;;10.87;78.53
79370;BME280;68835;53.096;17.932;2023-04-15T10:29:26;100198.11;;;10.83;78.40
79370;BME280;68835;53.096;17.932;2023-04-15T10:31:57;100200.55;;;10.77;78.40
79370;BME280;68835;53.096;17.932;2023-04-15T10:34:25;100205.45;;;10.73;78.53
79370;BME280;68835;53.096;17.932;2023-04-15T10:37:03;100204.39;;;10.69;78.52
79370;BME280;68835;53.096;17.932;2023-04-15T10:42:14;100201.05;;;10.59;78.79
79370;BME280;68835;53.096;17.932;2023-04-15T10:44:48;100202.81;;;10.56;78.70
79370;BME280;68835;53.096;17.932;2023-04-15T10:47:16;100201.92;;;10.54;78.80
79370;BME280;68835;53.096;17.932;2023-04-15T10:49:50;100201.40;;;10.52;78.75
79370;BME280;68835;53.096;17.932;2023-04-15T10:52:23;100202.80;;;10.56;78.87
79370;BME280;68835;53.096;17.932;2023-04-15T10:55:14;100202.98;;;10.58;78.96
79370;BME280;68835;53.096;17.932;2023-04-15T10:57:42;100205.27;;;10.62;78.88
79370;BME280;68835;53.096;17.932;2023-04-15T11:00:11;100201.23;;;10.63;78.78
79370;BME280;68835;53.096;17.932;2023-04-15T11:02:44;100207.38;;;10.66;78.87
79370;BME280;68835;53.096;17.932;2023-04-15T11:05:13;100208.60;;;10.64;79.13
79370;BME280;68835;53.096;17.932;2023-04-15T11:07:50;100206.67;;;10.62;78.94
79370;BME280;68835;53.096;17.932;2023-04-15T11:12:59;100212.44;;;10.70;78.84
79370;BME280;68835;53.096;17.932;2023-04-15T11:15:40;100214.20;;;10.75;78.85
79370;BME280;68835;53.096;17.932;2023-04-15T11:18:10;100215.27;;;10.77;78.95
79370;BME280;68835;53.096;17.932;2023-04-15T11:20:40;100218.04;;;10.75;78.95
79370;BME280;68835;53.096;17.932;2023-04-15T11:23:08;100219.44;;;10.72;78.94
79370;BME280;68835;53.096;17.932;2023-04-15T11:25:35;100217.88;;;10.69;78.99
79370;BME280;68835;53.096;17.932;2023-04-15T11:28:06;100220.48;;;10.65;78.97
79370;BME280;68835;53.096;17.932;2023-04-15T11:30:34;100226.44;;;10.63;78.98
79370;BME280;68835;53.096;17.932;2023-04-15T11:33:03;100225.56;;;10.61;78.98
79370;BME280;68835;53.096;17.932;2023-04-15T11:35:31;100228.34;;;10.55;79.08
79370;BME280;68835;53.096;17.932;2023-04-15T11:38:02;100224.66;;;10.49;79.42
79370;BME280;68835;53.096;17.932;2023-04-15T11:40:31;100225.70;;;10.45;79.43
79370;BME280;68835;53.096;17.932;2023-04-15T11:43:08;100230.77;;;10.41;79.40
79370;BME280;68835;53.096;17.932;2023-04-15T11:45:47;100228.48;;;10.37;79.53
79370;BME280;68835;53.096;17.932;2023-04-15T11:48:14;100229.34;;;10.32;79.46
79370;BME280;68835;53.096;17.932;2023-04-15T11:50:42;100228.30;;;10.35;79.52
79370;BME280;68835;53.096;17.932;2023-04-15T11:53:11;100228.84;;;10.41;79.32
79370;BME280;68835;53.096;17.932;2023-04-15T11:55:44;100232.36;;;10.49;79.44
79370;BME280;68835;53.096;17.932;2023-04-15T11:58:14;100230.45;;;10.53;79.45
79370;BME280;68835;53.096;17.932;2023-04-15T12:00:50;100233.07;;;10.54;79.19
79370;BME280;68835;53.096;17.932;2023-04-15T12:03:29;100233.77;;;10.54;79.28
79370;BME280;68835;53.096;17.932;2023-04-15T12:11:43;100243.20;;;10.50;79.29
79370;BME280;68835;53.096;17.932;2023-04-15T12:14:27;100244.27;;;10.52;79.32
79370;BME280;68835;53.096;17.932;2023-04-15T12:17:02;100244.10;;;10.56;79.22
79370;BME280;68835;53.096;17.932;2023-04-15T12:19:35;100244.27;;;10.54;79.54
79370;BME280;68835;53.096;17.932;2023-04-15T12:22:05;100242.33;;;10.51;79.69
79370;BME280;68835;53.096;17.932;2023-04-15T12:24:35;100244.61;;;10.53;79.74
79370;BME280;68835;53.096;17.932;2023-04-15T12:27:04;100247.60;;;10.59;79.66
79370;BME280;68835;53.096;17.932;2023-04-15T12:29:36;100247.95;;;10.61;79.57
79370;BME280;68835;53.096;17.932;2023-04-15T12:32:09;100252.85;;;10.63;79.74
79370;BME280;68835;53.096;17.932;2023-04-15T12:34:39;100252.86;;;10.64;79.49
79370;BME280;68835;53.096;17.932;2023-04-15T12:37:08;100255.48;;;10.66;79.50
79370;BME280;68835;53.096;17.932;2023-04-15T12:39:38;100256.88;;;10.69;79.61
79370;BME280;68835;53.096;17.932;2023-04-15T12:42:07;100255.84;;;10.75;79.55
79370;BME280;68835;53.096;17.932;2023-04-15T12:44:35;100258.65;;;10.80;79.35
79370;BME280;68835;53.096;17.932;2023-04-15T12:47:03;100256.04;;;10.87;79.22
79370;BME280;68835;53.096;17.932;2023-04-15T12:49:31;100256.05;;;10.92;79.11
79370;BME280;68835;53.096;17.932;2023-04-15T12:52:00;100257.09;;;10.90;79.28
79370;BME280;68835;53.096;17.932;2023-04-15T12:54:29;100260.41;;;10.86;79.34
79370;BME280;68835;53.096;17.932;2023-04-15T12:56:57;100262.70;;;10.86;79.12
79370;BME280;68835;53.096;17.932;2023-04-15T12:59:24;100263.05;;;10.89;79.21
79370;BME280;68835;53.096;17.932;2023-04-15T13:01:52;100263.92;;;10.92;79.49
79370;BME280;68835;53.096;17.932;2023-04-15T13:04:20;100267.60;;;10.94;79.30
79370;BME280;68835;53.096;17.932;2023-04-15T13:06:47;100265.85;;;10.96;79.38